Impacts TAF Board
For situational awareness. Not to be used for flight planning purposes.
IDs:

KATL - Atlanta/Hartsfield-J, GA, US

Issued at 0539 UTC 24 Jan 2019
Updated at 0656 UTC 24 Jan 2019
Potential Impact None Slight Moderate High
Time0652Z 24/07Z 24/08Z 24/09Z 24/10Z 24/11Z 24/12Z 24/13Z 24/14Z 24/15Z 24/16Z 24/17Z 24/18Z 24/19Z>>
Type OBS PRVL PRVL PRVL PRVL PRVL PRVL PRVL PRVL PRVL PRVL PRVL PRVL PRVL
VIS 7 6 6 6 6 >6 >6 >6 >6 >6 >6 >6 >6 >6
CIG 70 15 12 12 12 15 15 15 15 25 25 25 -- --
Cover OVC BKN BKN BKN BKN BKN BKN BKN BKN BKN BKN BKN SCT SCT
FltCat VFR MVFR MVFR MVFR MVFR MVFR MVFR MVFR MVFR MVFR MVFR MVFR VFR VFR
WX -RA -RA BR BR VCSH BR VCSH BR VCSH -- -- -- -- -- -- -- -- --
WDir 190 300 320 320 320 310 310 310 310 310 310 310 300 300
WSpd 4 10 15 15 15 13 13 13 13 13 13 13 12 12
WGst -- 18 25 25 25 22 22 22 22 22 22 22 20 20
Raw TAF
KATL 240539Z 2406/2512 30010G18KT 6SM -RA BR SCT005 BKN015
  FM240800 32015G25KT 6SM BR VCSH SCT007 BKN012
  FM241100 31013G22KT P6SM BKN015
  FM241500 31013G22KT P6SM BKN025
  FM241800 30012G20KT P6SM SCT030
  FM250000 30010KT P6SM FEW250


Raw METAR
KATL 240652Z 19004KT 7SM -RA FEW002 OVC070 12/11 A2971 RMK AO2 SLP055 P0002 T01220111
KATL 240552Z 00000KT 8SM -RA FEW003 SCT075 OVC100 12/11 A2971 RMK AO2 SLP059 P0006 60174 T01220111 10172 20122 56015
KATL 240546Z 00000KT 7SM -RA FEW003 SCT065 OVC100 12/11 A2972 RMK AO2 P0006
KATL 240452Z 31014G22KT 1SM R09R/P6000FT RA BR FEW003 BKN030 OVC080 12/11 A2974 RMK AO2 PK WND 28028/0435 WSHFT 0432 SFC VIS 3 SLP067 P0018 T01220111 401940056
KATL 240405Z 18003KT 1SM R09R/P6000FT RA BR BKN004 BKN035 OVC100 14/14 A2972 RMK AO2 SFC VIS 4 P0002 T01440139
KATL 240352Z 15004KT 4SM -RA BR SCT004 BKN035 OVC100 14/14 A2971 RMK AO2 SLP060 SCT004 V BKN P0020 T01440139

METAR Board
Radar Display
Forecast Discussion
For situational awareness. Not to be used for flight planning purposes.